Country Lakes, Florida
Current Conditions -  °F | °C
As of 8:53 PM on Saturday 22 Nov 2014 (Local Time) from KTMB Reporting Station
Overcast Overcast  
Wind Chill: 76°   Ceiling: 5500
Heat Index: 76°   Visibility: 10mi
Dew Point: 71°   Wind: 15mph
Humidity: 85%   Direction: 110°ESE
Pressure: 30.08"   Gusts: 25mph
Location:  25.6007°N, 80.4075°W
Report Text: KTMB 230153Z 11013G22KT 10SM SCT036 OVC055 24/22 A3008 RMK AO2 RAE19B39E51 SLP186 P0000 T02440217
Loading
Personal Weather Stations






























Interactive Weather Map New forecast layout! Learn more

10-Day Weather Forecast

Advertisements
Track Severe Weather on mobile